Time;durP1;ratioP1;P1;durP2;ratioP2;P2;SDS_P1;SDS_P2;PMS_P1;PMS_P2;Temp;Humidity;BMP_temperature;BMP_pressure;BME280_temperature;BME280_humidity;BME280_pressure;Samples;Min_cycle;Max_cycle;Signal;HPM_P1;HPM_P2
2023/09/20 00:01:46;;;;;;;3.00;1.80;;;15.80;99.90;;;;;;5047121;28;20870;-72
2023/09/20 00:04:12;;;;;;;1.80;1.40;;;15.80;99.90;;;;;;5046863;28;20548;-72
2023/09/20 00:06:38;;;;;;;7.50;1.80;;;15.80;99.90;;;;;;5046910;28;20443;-72
2023/09/20 00:09:04;;;;;;;2.27;1.67;;;15.80;99.90;;;;;;5048299;28;20260;-72
2023/09/20 00:11:30;;;;;;;1.87;1.37;;;15.80;99.90;;;;;;5048145;28;20185;-71
2023/09/20 00:13:58;;;;;;;3.70;1.50;;;16.00;99.90;;;;;;5048173;28;20482;-72
2023/09/20 00:16:23;;;;;;;3.70;1.50;;;16.00;99.90;;;;;;5046607;28;20767;-72
2023/09/20 00:18:49;;;;;;;3.73;1.50;;;16.10;99.90;;;;;;5047991;28;20518;-72
2023/09/20 00:21:15;;;;;;;3.00;1.40;;;16.10;99.90;;;;;;5046387;28;20820;-71
2023/09/20 00:23:41;;;;;;;2.03;1.57;;;16.20;99.90;;;;;;5047797;28;20201;-72
2023/09/20 00:26:07;;;;;;;1.90;1.47;;;16.20;99.90;;;;;;5046553;28;20528;-71
2023/09/20 00:28:33;;;;;;;2.57;1.37;;;16.20;99.90;;;;;;5047983;28;20853;-72
2023/09/20 00:30:59;;;;;;;2.73;1.53;;;16.10;99.90;;;;;;5048330;28;20451;-71
2023/09/20 00:33:25;;;;;;;1.47;1.30;;;16.20;99.90;;;;;;5030055;28;20556;-71
2023/09/20 00:35:51;;;;;;;2.97;1.43;;;16.20;99.90;;;;;;5050763;28;20186;-72
2023/09/20 00:38:17;;;;;;;2.90;1.43;;;16.00;99.90;;;;;;5051869;28;20466;-72
2023/09/20 00:40:43;;;;;;;1.83;1.27;;;16.00;99.90;;;;;;5050358;28;20588;-72
2023/09/20 00:43:11;;;;;;;3.10;1.40;;;16.00;99.90;;;;;;5051836;28;20424;-72
2023/09/20 00:45:40;;;;;;;1.93;1.30;;;15.90;99.90;;;;;;5051721;28;20628;-72
2023/09/20 00:48:07;;;;;;;2.80;1.60;;;15.70;99.90;;;;;;5050652;28;20925;-72
2023/09/20 00:50:35;;;;;;;2.57;1.40;;;15.60;99.90;;;;;;5051733;28;20419;-72
2023/09/20 00:53:06;;;;;;;5.30;1.53;;;15.50;99.90;;;;;;5051617;28;20420;-72
2023/09/20 00:55:35;;;;;;;1.20;1.10;;;15.50;99.90;;;;;;5050073;28;20449;-72
2023/09/20 00:58:05;;;;;;;2.03;1.40;;;15.60;99.90;;;;;;5050025;28;21072;-72
2023/09/20 01:00:32;;;;;;;3.63;1.33;;;15.60;99.90;;;;;;5033962;28;21323;-72
2023/09/20 01:03:00;;;;;;;2.10;1.30;;;15.70;99.90;;;;;;5050113;28;20416;-72
2023/09/20 01:05:27;;;;;;;2.40;1.43;;;15.70;99.90;;;;;;5051544;28;20535;-72
2023/09/20 01:07:55;;;;;;;2.60;1.30;;;15.70;99.90;;;;;;5049802;28;20426;-72
2023/09/20 01:10:23;;;;;;;1.60;1.40;;;15.70;99.90;;;;;;5051516;28;20429;-72
2023/09/20 01:13:00;;;;;;;1.80;1.10;;;15.80;99.90;;;;;;5049911;28;20430;-72
2023/09/20 01:15:27;;;;;;;1.83;1.40;;;15.70;99.90;;;;;;5051332;28;20891;-72
2023/09/20 01:17:55;;;;;;;2.27;1.27;;;15.60;99.90;;;;;;5049599;28;20476;-73
2023/09/20 01:20:23;;;;;;;2.10;1.87;;;15.50;99.90;;;;;;5049632;28;20808;-72
2023/09/20 01:22:51;;;;;;;2.80;1.27;;;15.40;99.90;;;;;;5051151;28;20429;-72
2023/09/20 01:25:27;;;;;;;3.93;1.50;;;15.20;99.90;;;;;;5050906;28;20494;-72
2023/09/20 01:27:55;;;;;;;2.33;1.20;;;15.20;99.90;;;;;;5049441;28;20484;-72
2023/09/20 01:30:28;;;;;;;3.40;1.10;;;15.30;99.90;;;;;;5050986;28;20523;-72
2023/09/20 01:32:58;;;;;;;2.50;1.53;;;15.30;99.90;;;;;;5049580;28;20435;-72
2023/09/20 01:35:26;;;;;;;4.83;1.73;;;15.40;99.90;;;;;;5050860;28;20956;-72
2023/09/20 01:37:52;;;;;;;2.13;1.20;;;15.30;99.90;;;;;;5032480;28;20508;-72
2023/09/20 01:40:23;;;;;;;3.23;1.10;;;15.30;99.90;;;;;;5051070;28;20411;-72
2023/09/20 01:42:49;;;;;;;5.57;1.40;;;15.30;99.90;;;;;;5049252;28;21019;-71
2023/09/20 01:45:17;;;;;;;3.73;1.30;;;15.40;99.90;;;;;;5050289;28;20441;-71
2023/09/20 01:47:49;;;;;;;2.20;1.40;;;15.40;99.90;;;;;;5049199;28;20437;-72
2023/09/20 01:50:25;;;;;;;2.80;1.40;;;15.30;99.90;;;;;;5050750;28;20772;-72
2023/09/20 01:52:59;;;;;;;1.33;1.00;;;15.20;99.90;;;;;;5049306;28;20983;-72
2023/09/20 01:55:27;;;;;;;3.10;0.90;;;14.80;99.90;;;;;;5050385;28;20459;-72
2023/09/20 01:57:55;;;;;;;1.67;1.40;;;14.70;99.90;;;;;;5050422;28;20465;-72
2023/09/20 02:00:22;;;;;;;2.53;1.43;;;14.80;99.90;;;;;;5049497;28;20896;-72
2023/09/20 02:02:55;;;;;;;2.13;1.40;;;14.80;99.90;;;;;;5050243;28;20424;-72
2023/09/20 02:05:23;;;;;;;3.80;1.77;;;14.80;99.90;;;;;;5050185;28;20425;-72
2023/09/20 02:07:50;;;;;;;5.27;1.80;;;14.80;99.90;;;;;;5050198;28;20498;-72
2023/09/20 02:10:16;;;;;;;3.40;1.20;;;14.80;99.90;;;;;;5050136;28;20419;-71
2023/09/20 02:12:53;;;;;;;4.30;1.33;;;14.90;99.90;;;;;;5032065;28;20430;-72
2023/09/20 02:15:20;;;;;;;2.00;1.57;;;15.00;99.90;;;;;;5050115;28;20461;-72
2023/09/20 02:17:46;;;;;;;1.77;1.33;;;15.10;99.90;;;;;;5049888;28;20462;-72
2023/09/20 02:20:19;;;;;;;4.53;1.43;;;15.20;99.90;;;;;;5050012;28;20439;-72
2023/09/20 02:22:48;;;;;;;1.60;1.20;;;15.20;99.90;;;;;;5050221;28;20808;-72
2023/09/20 02:25:14;;;;;;;1.87;1.27;;;15.10;99.90;;;;;;5050185;28;20991;-72
2023/09/20 02:27:42;;;;;;;3.73;1.10;;;15.00;99.90;;;;;;5050072;28;20423;-72
2023/09/20 02:30:15;;;;;;;2.10;1.40;;;14.90;99.90;;;;;;5050248;28;20416;-71
2023/09/20 02:32:42;;;;;;;1.70;1.30;;;14.80;99.90;;;;;;5048746;28;20507;-72
2023/09/20 02:35:08;;;;;;;3.20;1.40;;;14.60;99.90;;;;;;5050102;28;20545;-72
2023/09/20 02:37:34;;;;;;;3.00;1.27;;;14.60;99.90;;;;;;5050250;28;20466;-72
2023/09/20 02:40:00;;;;;;;2.10;1.10;;;14.60;99.90;;;;;;5048591;28;20512;-72
2023/09/20 02:42:26;;;;;;;1.70;1.13;;;14.60;99.90;;;;;;5050009;28;20415;-73
2023/09/20 02:44:56;;;;;;;3.53;1.53;;;14.70;99.90;;;;;;5048712;28;20436;-72
2023/09/20 02:47:24;;;;;;;2.80;1.60;;;14.70;99.90;;;;;;5049993;28;21195;-72
2023/09/20 02:49:50;;;;;;;2.60;1.10;;;14.70;99.90;;;;;;5048633;28;21214;-72
2023/09/20 02:52:18;;;;;;;1.80;1.47;;;14.70;99.90;;;;;;5049941;28;20434;-72
2023/09/20 02:54:44;;;;;;;1.83;1.27;;;14.60;99.90;;;;;;5049671;28;20435;-72
2023/09/20 02:57:11;;;;;;;3.23;1.47;;;14.60;99.90;;;;;;5048871;28;20469;-72
2023/09/20 02:59:39;;;;;;;2.13;1.30;;;14.70;99.90;;;;;;5048009;28;20419;-72
2023/09/20 03:02:05;;;;;;;3.60;1.10;;;14.70;99.90;;;;;;5049340;28;20420;-72
2023/09/20 03:04:31;;;;;;;4.47;1.40;;;14.70;99.90;;;;;;5049540;28;20456;-72
2023/09/20 03:06:57;;;;;;;1.77;1.17;;;14.70;99.90;;;;;;5049434;28;20422;-71
2023/09/20 03:09:26;;;;;;;5.43;1.20;;;14.50;99.90;;;;;;5048057;28;20422;-72
2023/09/20 03:11:53;;;;;;;1.53;1.27;;;14.60;99.90;;;;;;5047824;28;20223;-72
2023/09/20 03:14:18;;;;;;;3.43;1.53;;;14.50;99.90;;;;;;5031786;28;21069;-72
2023/09/20 03:16:44;;;;;;;1.60;1.10;;;14.40;99.90;;;;;;5047789;28;20438;-72
2023/09/20 03:19:13;;;;;;;3.03;1.60;;;14.40;99.90;;;;;;5048274;28;20713;-72
2023/09/20 03:21:41;;;;;;;1.63;1.30;;;14.40;99.90;;;;;;5049643;28;20670;-72
2023/09/20 03:24:08;;;;;;;1.83;1.33;;;14.40;99.90;;;;;;5048302;28;20436;-72
2023/09/20 03:26:35;;;;;;;3.00;1.50;;;14.40;99.90;;;;;;5049583;28;20792;-72
2023/09/20 03:29:03;;;;;;;2.73;1.40;;;14.30;99.90;;;;;;5048569;28;21017;-71
2023/09/20 03:31:31;;;;;;;3.83;1.53;;;14.30;99.90;;;;;;5049617;28;20527;-71
2023/09/20 03:33:59;;;;;;;2.63;1.53;;;14.30;99.90;;;;;;5049429;28;20438;-71
2023/09/20 03:36:25;;;;;;;2.03;1.50;;;14.40;99.90;;;;;;5049112;28;20483;-71
2023/09/20 03:38:51;;;;;;;5.30;1.87;;;14.40;99.90;;;;;;5049242;28;20521;-71
2023/09/20 03:41:17;;;;;;;2.70;1.90;;;14.40;99.90;;;;;;5047996;28;20462;-72
2023/09/20 03:43:45;;;;;;;1.77;1.60;;;14.30;99.90;;;;;;5048433;28;20208;-72
2023/09/20 03:46:11;;;;;;;5.33;1.70;;;14.30;99.90;;;;;;5049328;28;20204;-71
2023/09/20 03:48:36;;;;;;;2.40;1.10;;;14.30;99.90;;;;;;5048030;28;20464;-72
2023/09/20 03:51:04;;;;;;;1.50;1.40;;;14.30;99.90;;;;;;5048131;28;20230;-72
2023/09/20 03:53:30;;;;;;;2.10;1.50;;;14.30;99.90;;;;;;5049143;28;20186;-73
2023/09/20 03:55:55;;;;;;;2.03;1.23;;;14.30;99.90;;;;;;5049098;28;20446;-72
2023/09/20 03:58:22;;;;;;;2.17;1.60;;;14.30;99.90;;;;;;5047719;28;20212;-72
2023/09/20 04:00:48;;;;;;;2.23;1.27;;;14.30;99.90;;;;;;5047847;28;20180;-72
2023/09/20 04:03:14;;;;;;;4.03;1.30;;;14.30;99.90;;;;;;5049358;28;20423;-72
2023/09/20 04:05:40;;;;;;;4.67;1.40;;;14.40;99.90;;;;;;5049311;28;20430;-72
2023/09/20 04:08:06;;;;;;;4.00;1.97;;;14.50;99.90;;;;;;5049145;28;20185;-72
2023/09/20 04:10:33;;;;;;;2.13;1.30;;;14.50;99.90;;;;;;5046945;28;20236;-72
2023/09/20 04:12:59;;;;;;;1.77;1.23;;;14.50;99.90;;;;;;5048594;28;20414;-73
2023/09/20 04:15:26;;;;;;;3.50;1.90;;;14.60;99.90;;;;;;5046206;28;20451;-72
2023/09/20 04:17:52;;;;;;;3.03;1.30;;;14.60;99.90;;;;;;5047125;28;20475;-72
2023/09/20 04:20:20;;;;;;;1.47;1.33;;;14.70;99.90;;;;;;5047180;28;20421;-72
2023/09/20 04:22:47;;;;;;;4.73;1.90;;;14.70;99.90;;;;;;5046771;28;20284;-72
2023/09/20 04:25:13;;;;;;;8.13;1.43;;;14.60;99.90;;;;;;5045198;28;20441;-72
2023/09/20 04:27:39;;;;;;;2.10;1.60;;;14.50;99.90;;;;;;5029018;28;20418;-72
2023/09/20 04:30:07;;;;;;;2.10;1.20;;;14.50;99.90;;;;;;5046825;28;20549;-72
2023/09/20 04:32:33;;;;;;;3.50;2.23;;;14.50;99.90;;;;;;5046980;28;20250;-72
2023/09/20 04:34:59;;;;;;;6.80;2.00;;;14.40;99.90;;;;;;5045258;28;20439;-72
2023/09/20 04:37:25;;;;;;;3.47;1.90;;;14.20;99.90;;;;;;5045509;28;20474;-72
2023/09/20 04:39:51;;;;;;;5.73;1.73;;;14.10;99.90;;;;;;5046691;28;20181;-72
2023/09/20 04:42:17;;;;;;;4.27;1.57;;;13.90;99.90;;;;;;5046925;28;20418;-72
2023/09/20 04:44:43;;;;;;;4.23;1.80;;;13.90;99.90;;;;;;5046858;28;20442;-72
2023/09/20 04:47:13;;;;;;;2.70;1.80;;;13.90;99.90;;;;;;5047062;28;20242;-71
2023/09/20 04:49:38;;;;;;;2.80;2.00;;;13.90;99.90;;;;;;5046960;28;20203;-72
2023/09/20 04:52:05;;;;;;;2.37;1.60;;;13.80;99.90;;;;;;5046829;28;20875;-72
2023/09/20 04:54:33;;;;;;;2.57;1.83;;;13.80;99.90;;;;;;5045090;28;20210;-72
2023/09/20 04:56:59;;;;;;;2.40;1.57;;;13.80;99.90;;;;;;5045277;28;20954;-71
2023/09/20 04:59:25;;;;;;;3.23;1.43;;;13.80;99.90;;;;;;5047285;28;20429;-72
2023/09/20 05:01:51;;;;;;;2.10;1.27;;;14.00;99.90;;;;;;5029113;28;20187;-72
2023/09/20 05:04:18;;;;;;;4.27;1.80;;;14.10;99.90;;;;;;5047181;28;20434;-71
2023/09/20 05:06:45;;;;;;;3.00;1.60;;;14.10;99.90;;;;;;5047314;28;20605;-72
2023/09/20 05:09:11;;;;;;;3.17;1.33;;;14.20;99.90;;;;;;5047027;28;20943;-71
2023/09/20 05:11:37;;;;;;;7.30;1.30;;;14.20;99.90;;;;;;5047840;28;20418;-72
2023/09/20 05:14:05;;;;;;;4.20;1.37;;;14.10;99.90;;;;;;5046182;28;20446;-71
2023/09/20 05:16:31;;;;;;;2.43;1.17;;;14.20;99.90;;;;;;5046479;28;20454;-72
2023/09/20 05:18:57;;;;;;;3.87;1.50;;;14.30;99.90;;;;;;5047595;28;20557;-72
2023/09/20 05:21:22;;;;;;;6.20;2.20;;;14.30;99.90;;;;;;5047758;28;20783;-71
2023/09/20 05:23:48;;;;;;;5.27;1.70;;;14.40;99.90;;;;;;5051167;28;20225;-73
2023/09/20 05:26:14;;;;;;;1.63;1.23;;;14.40;99.90;;;;;;5051158;28;20187;-72
2023/09/20 05:28:39;;;;;;;3.40;1.40;;;14.40;99.90;;;;;;5050814;28;20188;-72
2023/09/20 05:31:08;;;;;;;6.17;1.33;;;14.40;99.90;;;;;;5050924;28;20208;-72
2023/09/20 05:33:34;;;;;;;5.83;1.60;;;14.50;99.90;;;;;;5048722;28;20563;-72
2023/09/20 05:36:00;;;;;;;2.80;1.60;;;14.50;99.90;;;;;;5048911;28;20432;-72
2023/09/20 05:38:26;;;;;;;2.87;1.60;;;14.60;99.90;;;;;;5050179;28;20463;-71
2023/09/20 05:40:52;;;;;;;3.40;1.43;;;14.60;99.90;;;;;;5050262;28;20191;-72
2023/09/20 05:43:18;;;;;;;4.30;1.40;;;14.60;99.90;;;;;;5050231;28;20463;-72
2023/09/20 05:45:43;;;;;;;13.00;1.60;;;14.80;99.90;;;;;;5049094;28;20414;-71
2023/09/20 05:48:12;;;;;;;1.43;1.33;;;14.80;99.90;;;;;;5050262;28;20513;-72
2023/09/20 05:50:40;;;;;;;2.60;1.20;;;14.90;99.90;;;;;;5050199;28;20237;-72
2023/09/20 05:53:10;;;;;;;2.50;1.33;;;15.10;99.90;;;;;;5050049;28;20418;-71
2023/09/20 05:55:37;;;;;;;3.23;1.33;;;15.20;99.90;;;;;;5048226;28;20958;-72
2023/09/20 05:58:03;;;;;;;1.90;1.10;;;15.20;99.90;;;;;;5049663;28;20454;-72
2023/09/20 06:00:29;;;;;;;1.73;1.13;;;15.30;99.90;;;;;;5049776;28;20425;-72
2023/09/20 06:02:59;;;;;;;2.20;1.50;;;15.70;99.90;;;;;;5049541;28;20599;-72
2023/09/20 06:05:26;;;;;;;2.83;1.73;;;16.20;99.90;;;;;;5048053;28;20449;-72
2023/09/20 06:07:53;;;;;;;1.57;1.47;;;17.00;99.90;;;;;;5049228;28;20429;-73
2023/09/20 06:10:20;;;;;;;2.20;1.33;;;17.60;99.90;;;;;;5047746;28;20806;-72
2023/09/20 06:12:46;;;;;;;1.80;1.30;;;18.00;99.90;;;;;;5047374;28;21213;-73
2023/09/20 06:15:14;;;;;;;3.37;1.53;;;18.30;99.90;;;;;;5048824;28;20442;-72
2023/09/20 06:17:44;;;;;;;1.90;1.47;;;18.20;99.90;;;;;;5049159;28;20540;-72
2023/09/20 06:20:18;;;;;;;2.00;1.30;;;18.30;99.90;;;;;;5049381;28;20418;-72
2023/09/20 06:22:48;;;;;;;5.63;1.40;;;18.60;99.90;;;;;;5047439;28;21005;-72
2023/09/20 06:25:15;;;;;;;1.80;1.50;;;18.70;99.90;;;;;;5048881;28;20429;-72
2023/09/20 06:27:41;;;;;;;2.13;1.10;;;18.60;99.90;;;;;;5047662;28;20518;-72
2023/09/20 06:30:12;;;;;;;2.23;1.47;;;18.50;99.90;;;;;;5049136;28;20420;-72
2023/09/20 06:32:39;;;;;;;1.70;1.20;;;18.40;99.90;;;;;;5047786;28;20769;-72
2023/09/20 06:35:05;;;;;;;9.73;1.40;;;18.20;99.90;;;;;;5048620;28;20441;-72
2023/09/20 06:37:31;;;;;;;2.50;1.37;;;18.00;99.90;;;;;;5047177;28;20459;-72
2023/09/20 06:39:57;;;;;;;3.50;1.43;;;18.00;99.90;;;;;;5048593;28;20761;-71
2023/09/20 06:42:25;;;;;;;2.70;1.20;;;17.90;99.90;;;;;;5048545;28;20692;-72
2023/09/20 06:44:55;;;;;;;1.97;1.30;;;17.80;99.90;;;;;;5048656;28;20199;-72
2023/09/20 06:47:24;;;;;;;2.03;1.40;;;17.70;99.90;;;;;;5031121;28;20438;-72
2023/09/20 06:49:50;;;;;;;2.20;1.23;;;17.70;99.90;;;;;;5048953;28;20472;-72
2023/09/20 06:52:15;;;;;;;2.60;1.43;;;17.50;99.90;;;;;;5048831;28;20475;-71
2023/09/20 06:54:41;;;;;;;5.63;1.60;;;17.50;99.90;;;;;;5048739;28;20858;-71
2023/09/20 06:57:08;;;;;;;2.00;1.63;;;17.50;99.90;;;;;;5047119;28;20258;-71
2023/09/20 06:59:37;;;;;;;3.17;1.73;;;17.50;99.90;;;;;;5048935;28;20180;-72
2023/09/20 07:02:03;;;;;;;2.17;1.33;;;17.50;99.90;;;;;;5048774;28;20422;-72
2023/09/20 07:04:28;;;;;;;3.60;1.40;;;17.50;99.90;;;;;;5047227;28;20502;-71
2023/09/20 07:06:58;;;;;;;4.03;1.53;;;17.50;99.90;;;;;;5048350;28;20194;-72
2023/09/20 07:09:24;;;;;;;1.97;1.37;;;17.50;99.90;;;;;;5048476;28;20187;-71
2023/09/20 07:11:53;;;;;;;2.80;1.50;;;17.60;99.90;;;;;;5047010;28;20911;-71
2023/09/20 07:14:23;;;;;;;3.43;1.20;;;17.70;99.90;;;;;;5048185;28;20450;-72
2023/09/20 07:16:51;;;;;;;2.30;1.43;;;17.70;99.90;;;;;;5048107;28;20459;-71
2023/09/20 07:19:20;;;;;;;2.80;1.53;;;17.70;99.90;;;;;;5048170;28;20853;-71
2023/09/20 07:21:45;;;;;;;1.97;1.00;;;17.80;99.90;;;;;;5046491;28;20483;-72
2023/09/20 07:24:12;;;;;;;1.50;1.37;;;17.90;99.90;;;;;;5046675;28;20437;-71
2023/09/20 07:26:43;;;;;;;2.33;1.23;;;18.00;99.90;;;;;;5048090;28;20174;-72
2023/09/20 07:29:15;;;;;;;3.93;1.60;;;18.10;99.90;;;;;;5047760;28;20486;-71
2023/09/20 07:31:41;;;;;;;3.57;1.33;;;18.20;99.90;;;;;;5047630;28;20417;-70
2023/09/20 07:34:09;;;;;;;6.20;1.70;;;18.30;99.90;;;;;;5047381;28;20896;-71
2023/09/20 07:36:37;;;;;;;3.00;1.73;;;18.40;99.90;;;;;;5045835;28;20422;-71
2023/09/20 07:39:08;;;;;;;2.03;1.30;;;18.60;99.90;;;;;;5045863;28;20473;-72
2023/09/20 07:41:35;;;;;;;2.73;1.93;;;18.70;99.90;;;;;;5046071;28;20414;-71
2023/09/20 07:44:00;;;;;;;2.30;1.37;;;18.70;99.90;;;;;;5045676;28;20438;-71
2023/09/20 07:46:26;;;;;;;1.43;1.20;;;18.80;99.90;;;;;;5046193;28;20411;-71
2023/09/20 07:48:52;;;;;;;3.60;1.33;;;18.90;99.90;;;;;;5047476;28;20677;-71
2023/09/20 07:51:20;;;;;;;2.23;1.43;;;18.90;99.90;;;;;;5047534;28;20208;-70
2023/09/20 07:53:49;;;;;;;7.70;3.00;;;19.10;99.90;;;;;;5045969;28;20546;-71
2023/09/20 07:56:17;;;;;;;5.63;1.83;;;19.20;99.90;;;;;;5047263;28;20454;-71
2023/09/20 07:58:44;;;;;;;2.60;1.70;;;19.40;99.90;;;;;;5047429;28;20468;-71
2023/09/20 08:01:20;;;;;;;3.23;1.27;;;19.50;99.90;;;;;;5047352;28;20198;-71
2023/09/20 08:03:53;;;;;;;2.57;1.27;;;19.50;99.90;;;;;;5047297;28;20442;-71
2023/09/20 08:06:28;;;;;;;4.37;1.80;;;19.60;99.90;;;;;;5047364;28;20420;-72
2023/09/20 08:08:55;;;;;;;1.50;1.23;;;19.70;99.90;;;;;;5047149;28;20409;-72
2023/09/20 08:11:20;;;;;;;1.23;1.10;;;19.70;99.90;;;;;;5047229;28;20442;-72
2023/09/20 08:13:46;;;;;;;2.00;1.43;;;19.70;99.90;;;;;;5046921;28;20558;-72
2023/09/20 08:16:12;;;;;;;2.03;1.30;;;19.90;99.90;;;;;;5045522;28;20275;-72
2023/09/20 08:21:29;;;;;;;3.43;1.53;;;20.30;99.90;;;;;;5046735;28;20412;-72
2023/09/20 08:59:52;;;;;;;3.67;1.83;;;22.20;99.90;;;;;;5050432;28;20432;-73
2023/09/20 09:02:17;;;;;;;3.70;1.60;;;22.30;99.90;;;;;;5050108;28;20432;-73
2023/09/20 09:04:52;;;;;;;1.60;1.23;;;22.40;99.90;;;;;;5048565;28;20948;-73
2023/09/20 09:07:18;;;;;;;1.70;1.20;;;22.50;99.90;;;;;;5048349;28;20453;-73
2023/09/20 09:09:46;;;;;;;5.13;1.63;;;22.60;99.90;;;;;;5048409;28;20967;-73
2023/09/20 09:12:12;;;;;;;2.10;1.23;;;23.00;99.90;;;;;;5048045;28;20661;-73
2023/09/20 09:14:39;;;;;;;1.57;1.47;;;23.20;99.90;;;;;;5049635;28;20529;-74
2023/09/20 09:17:07;;;;;;;6.67;1.27;;;23.50;99.90;;;;;;5048141;28;20889;-74
2023/09/20 09:19:33;;;;;;;2.80;1.20;;;24.00;99.90;;;;;;5049715;28;20434;-73
2023/09/20 09:22:00;;;;;;;3.60;1.50;;;24.10;99.90;;;;;;5049612;28;20421;-73
2023/09/20 09:24:29;;;;;;;2.30;1.60;;;23.60;99.90;;;;;;5048139;28;20440;-73
2023/09/20 09:27:05;;;;;;;1.80;1.47;;;23.40;99.90;;;;;;5049837;28;20789;-74
2023/09/20 09:29:31;;;;;;;3.83;1.27;;;24.30;99.90;;;;;;5048094;28;20517;-73
2023/09/20 09:32:00;;;;;;;2.40;1.30;;;24.90;99.90;;;;;;5031276;28;20518;-74
2023/09/20 09:34:25;;;;;;;1.90;1.20;;;25.30;99.90;;;;;;5049226;28;20228;-73
2023/09/20 09:36:53;;;;;;;2.37;1.43;;;26.00;99.90;;;;;;5049345;28;20509;-73
2023/09/20 09:39:19;;;;;;;1.20;1.10;;;26.30;99.90;;;;;;5047999;28;20663;-74
2023/09/20 09:41:46;;;;;;;1.57;1.10;;;26.90;99.90;;;;;;5047859;28;20416;-74
2023/09/20 09:44:12;;;;;;;1.60;1.40;;;26.70;99.90;;;;;;5049734;28;20432;-74
2023/09/20 09:46:41;;;;;;;1.80;1.30;;;27.10;99.90;;;;;;5047648;28;20953;-73
2023/09/20 09:49:11;;;;;;;2.93;1.83;;;27.70;99.90;;;;;;5049134;28;20174;-73
2023/09/20 09:51:45;;;;;;;2.00;1.20;;;27.80;99.90;;;;;;5047676;28;20487;-74
2023/09/20 09:54:14;;;;;;;3.23;1.60;;;28.10;99.90;;;;;;5049047;28;20766;-74
2023/09/20 09:56:40;;;;;;;1.20;1.10;;;28.10;99.90;;;;;;5048126;28;20445;-74
2023/09/20 09:59:06;;;;;;;2.00;1.20;;;27.90;99.90;;;;;;5049297;28;20479;-74
2023/09/20 10:01:36;;;;;;;3.17;1.40;;;28.30;99.90;;;;;;5049256;28;20406;-73
2023/09/20 10:04:10;;;;;;;2.20;1.50;;;28.60;99.90;;;;;;5049081;28;20888;-73
2023/09/20 10:07:16;;;;;;;2.67;2.10;;;28.90;99.90;;;;;;5048675;28;20414;-74
2023/09/20 10:09:48;;;;;;;3.67;3.33;;;29.10;99.90;;;;;;5030707;28;20437;-74
2023/09/20 10:12:15;;;;;;;2.03;1.50;;;29.30;99.90;;;;;;5049221;28;20840;-74
2023/09/20 10:14:43;;;;;;;1.47;1.03;;;29.40;99.90;;;;;;5047377;28;20445;-73
2023/09/20 10:17:14;;;;;;;1.20;1.10;;;29.00;99.90;;;;;;5048615;28;20513;-74
2023/09/20 10:19:39;;;;;;;1.57;1.10;;;28.90;99.90;;;;;;5048904;28;20421;-74
2023/09/20 10:22:09;;;;;;;2.03;1.00;;;29.40;99.90;;;;;;5048686;28;20410;-74
2023/09/20 10:24:45;;;;;;;4.40;1.10;;;29.40;99.90;;;;;;5030811;28;20206;-74
2023/09/20 10:27:15;;;;;;;2.20;1.13;;;29.70;99.90;;;;;;5047115;28;20425;-74
2023/09/20 10:29:47;;;;;;;1.80;1.10;;;29.60;99.90;;;;;;5048815;28;20480;-75
2023/09/20 10:32:21;;;;;;;1.73;1.00;;;29.70;99.90;;;;;;5048541;28;20406;-74
2023/09/20 10:35:19;;;;;;;2.10;1.07;;;30.00;99.90;;;;;;5031875;28;20434;-74
2023/09/20 10:38:20;;;;;;;2.00;1.37;;;29.70;99.90;;;;;;5048431;28;20873;-74
2023/09/20 10:40:46;;;;;;;1.50;1.03;;;30.10;99.90;;;;;;5048427;28;20406;-74
2023/09/20 10:43:13;;;;;;;1.17;1.07;;;30.20;99.90;;;;;;5048510;28;20402;-74
2023/09/20 10:45:39;;;;;;;1.73;0.80;;;30.40;99.90;;;;;;5048410;28;20805;-74
2023/09/20 10:48:18;;;;;;;2.57;1.20;;;30.40;99.90;;;;;;5047236;28;20424;-74
2023/09/20 10:50:50;;;;;;;1.80;1.40;;;30.50;99.90;;;;;;5048547;28;20912;-74
2023/09/20 10:53:22;;;;;;;1.20;0.90;;;30.60;99.90;;;;;;5047072;28;20450;-74
2023/09/20 10:55:49;;;;;;;2.00;1.30;;;30.10;99.90;;;;;;5048259;28;21127;-75
2023/09/20 10:58:18;;;;;;;1.07;0.93;;;30.30;99.90;;;;;;5048241;28;20468;-74
2023/09/20 11:00:44;;;;;;;4.00;0.90;;;30.50;99.90;;;;;;5048092;28;20415;-74
2023/09/20 11:03:11;;;;;;;1.30;1.10;;;30.40;99.90;;;;;;5047922;28;20585;-74
2023/09/20 11:05:38;;;;;;;1.13;1.03;;;30.10;99.90;;;;;;5048231;28;20520;-74
2023/09/20 11:08:08;;;;;;;1.10;0.90;;;30.00;99.90;;;;;;5047791;28;20429;-74
2023/09/20 11:10:35;;;;;;;1.10;0.90;;;30.00;99.90;;;;;;5046034;28;20437;-74
2023/09/20 11:13:08;;;;;;;1.23;1.00;;;30.30;99.90;;;;;;5046350;28;20962;-74
2023/09/20 11:15:41;;;;;;;1.43;0.90;;;29.90;99.90;;;;;;5047627;28;20438;-73
2023/09/20 11:18:07;;;;;;;2.90;1.20;;;29.60;99.90;;;;;;5047348;28;20475;-75
2023/09/20 11:20:37;;;;;;;2.50;1.10;;;29.10;99.90;;;;;;5046330;28;20421;-74
2023/09/20 11:23:03;;;;;;;1.73;1.17;;;29.20;99.90;;;;;;5030231;28;20437;-74
2023/09/20 11:25:29;;;;;;;3.80;0.90;;;28.60;99.90;;;;;;5047838;28;20462;-75
2023/09/20 11:27:56;;;;;;;2.03;1.00;;;28.70;99.90;;;;;;5047727;28;20414;-75
2023/09/20 11:30:27;;;;;;;1.83;1.20;;;29.20;99.90;;;;;;5029798;28;20995;-75
2023/09/20 11:32:56;;;;;;;2.20;1.17;;;29.40;99.90;;;;;;5047421;28;20501;-75
2023/09/20 11:35:42;;;;;;;1.83;1.30;;;29.80;99.90;;;;;;5047472;28;20438;-75
2023/09/20 11:38:10;;;;;;;1.30;1.10;;;29.60;99.90;;;;;;5045572;28;20476;-75
2023/09/20 11:40:41;;;;;;;3.00;1.40;;;29.70;99.90;;;;;;5047226;28;20414;-75
2023/09/20 11:43:09;;;;;;;2.60;1.53;;;29.60;99.90;;;;;;5047174;28;20414;-75
2023/09/20 11:45:41;;;;;;;3.00;1.43;;;29.50;99.90;;;;;;5013231;28;20445;-73
2023/09/20 11:48:08;;;;;;;3.20;1.20;;;29.60;99.90;;;;;;5046986;28;20406;-75
2023/09/20 11:50:34;;;;;;;3.97;1.30;;;29.90;99.90;;;;;;5029051;28;20526;-76
2023/09/20 11:53:00;;;;;;;1.67;1.30;;;30.00;99.90;;;;;;5047196;28;20854;-76
2023/09/20 11:55:26;;;;;;;3.77;1.30;;;30.00;99.90;;;;;;5045498;28;20452;-76
2023/09/20 11:57:55;;;;;;;1.43;1.17;;;29.90;99.90;;;;;;5047361;28;20216;-75
2023/09/20 12:00:25;;;;;;;5.63;1.40;;;29.90;99.90;;;;;;5047462;28;20419;-75
2023/09/20 12:02:53;;;;;;;6.30;1.30;;;29.70;99.90;;;;;;5047769;28;20410;-76
2023/09/20 12:05:19;;;;;;;2.30;1.20;;;29.50;99.90;;;;;;5047683;28;20448;-75
2023/09/20 12:07:59;;;;;;;2.50;1.50;;;29.50;99.90;;;;;;5046440;28;20422;-75
2023/09/20 12:10:26;;;;;;;2.90;1.43;;;29.70;99.90;;;;;;5047359;28;20541;-75
2023/09/20 12:12:52;;;;;;;2.87;1.13;;;29.20;99.90;;;;;;5047127;28;20802;-75
2023/09/20 12:15:21;;;;;;;3.77;1.10;;;28.80;99.90;;;;;;5047229;28;20967;-75
2023/09/20 12:17:47;;;;;;;2.10;1.40;;;28.70;99.90;;;;;;5045673;28;20458;-75
2023/09/20 12:20:15;;;;;;;3.17;1.40;;;28.80;99.90;;;;;;5046079;28;20533;-75
2023/09/20 12:22:43;;;;;;;1.50;1.17;;;28.80;99.90;;;;;;5046056;28;20425;-75
2023/09/20 12:25:11;;;;;;;1.53;1.40;;;28.90;99.90;;;;;;5045612;28;20453;-75
2023/09/20 12:27:36;;;;;;;2.37;1.60;;;28.90;99.90;;;;;;5047242;28;20414;-75
2023/09/20 12:30:04;;;;;;;2.03;1.63;;;29.00;99.90;;;;;;5047045;28;20957;-76
2023/09/20 12:32:31;;;;;;;1.13;1.03;;;29.10;99.90;;;;;;5051276;28;20176;-76
2023/09/20 12:34:57;;;;;;;2.00;1.30;;;29.10;99.90;;;;;;5051211;28;20438;-75
2023/09/20 12:37:23;;;;;;;2.90;1.13;;;29.00;99.90;;;;;;5050913;28;20462;-76
2023/09/20 12:39:50;;;;;;;3.07;1.90;;;28.90;99.90;;;;;;5051084;28;20425;-75
2023/09/20 12:42:16;;;;;;;3.40;1.20;;;28.80;99.90;;;;;;5050961;28;20493;-76
2023/09/20 12:44:43;;;;;;;4.80;1.60;;;28.80;99.90;;;;;;5050827;28;20539;-76
2023/09/20 12:47:09;;;;;;;2.63;1.60;;;29.00;99.90;;;;;;5050828;28;20177;-76
2023/09/20 12:49:37;;;;;;;1.70;1.37;;;28.60;99.90;;;;;;5050558;28;20458;-75
2023/09/20 12:52:03;;;;;;;2.40;1.17;;;28.40;99.90;;;;;;5050502;28;20785;-75
2023/09/20 12:54:30;;;;;;;3.30;1.40;;;28.30;99.70;;;;;;5049093;28;20438;-75
2023/09/20 12:56:57;;;;;;;3.00;1.30;;;28.40;99.90;;;;;;5050309;28;20857;-76
2023/09/20 12:59:26;;;;;;;3.43;1.57;;;28.50;99.80;;;;;;5048747;28;20473;-75
2023/09/20 13:01:54;;;;;;;1.97;1.77;;;28.30;99.30;;;;;;5050511;28;20429;-74
2023/09/20 13:04:20;;;;;;;3.40;1.20;;;28.20;99.90;;;;;;5048562;28;20434;-74
2023/09/20 13:06:46;;;;;;;3.30;1.30;;;28.20;99.90;;;;;;5050115;28;20449;-74
2023/09/20 13:09:15;;;;;;;3.13;1.50;;;28.20;99.90;;;;;;5049959;28;20215;-74
2023/09/20 13:11:46;;;;;;;1.73;1.50;;;28.20;99.90;;;;;;5048626;28;20472;-74
2023/09/20 13:14:12;;;;;;;3.87;1.10;;;28.30;99.90;;;;;;5049840;28;20999;-73
2023/09/20 13:16:40;;;;;;;2.33;1.37;;;28.40;99.90;;;;;;5050001;28;20421;-73
2023/09/20 13:19:09;;;;;;;9.37;1.60;;;28.50;99.90;;;;;;5049880;28;20871;-74
2023/09/20 13:21:35;;;;;;;3.10;1.40;;;28.50;99.90;;;;;;5049905;28;20418;-74
2023/09/20 13:24:01;;;;;;;1.63;1.00;;;28.60;99.90;;;;;;5049727;28;20835;-74
2023/09/20 13:26:27;;;;;;;5.00;1.67;;;28.60;99.90;;;;;;5048242;28;20487;-74
2023/09/20 13:28:53;;;;;;;3.30;1.60;;;28.60;99.90;;;;;;5049751;28;20426;-75
2023/09/20 13:31:19;;;;;;;2.00;1.20;;;28.50;99.40;;;;;;5048549;28;20190;-74